Time;durP1;ratioP1;P1;durP2;ratioP2;P2;SDS_P1;SDS_P2;PMS_P1;PMS_P2;Temp;Humidity;BMP_temperature;BMP_pressure;BME280_temperature;BME280_humidity;BME280_pressure;Samples;Min_cycle;Max_cycle;Signal;HPM_P1;HPM_P2
2020/12/27 00:02:42;;;;;;;6.30;5.67;;;2.10;40.40;;;;;;10411896;28;20235;-70
2020/12/27 00:07:45;;;;;;;4.77;4.17;;;2.10;40.40;;;;;;10412100;28;20507;-70
2020/12/27 00:12:47;;;;;;;6.23;5.63;;;2.10;40.40;;;;;;10413088;28;20229;-70
2020/12/27 00:17:49;;;;;;;6.33;5.43;;;2.10;40.30;;;;;;10407693;28;20625;-70
2020/12/27 00:22:52;;;;;;;6.17;5.57;;;2.20;40.20;;;;;;10419201;28;20316;-69
2020/12/27 00:27:54;;;;;;;10.37;5.53;;;2.10;40.10;;;;;;10413923;28;20232;-70
2020/12/27 00:32:56;;;;;;;6.07;5.40;;;2.10;40.10;;;;;;10412662;28;20247;-70
2020/12/27 00:37:59;;;;;;;5.60;5.07;;;2.10;40.10;;;;;;10412852;28;20230;-70
2020/12/27 00:43:05;;;;;;;5.37;4.97;;;2.20;40.20;;;;;;10406331;28;20232;-71
2020/12/27 00:48:07;;;;;;;5.77;5.17;;;2.10;39.80;;;;;;10421193;28;20257;-70
2020/12/27 00:53:11;;;;;;;5.87;5.13;;;2.00;39.70;;;;;;10409295;28;20229;-70
2020/12/27 00:58:13;;;;;;;5.43;4.93;;;2.00;39.70;;;;;;10412609;28;20613;-69
2020/12/27 01:03:15;;;;;;;4.90;4.40;;;2.00;39.70;;;;;;10406429;28;20225;-70
2020/12/27 01:08:18;;;;;;;5.67;4.60;;;2.00;39.60;;;;;;10408343;28;20217;-70
2020/12/27 01:13:20;;;;;;;5.73;4.67;;;1.90;39.70;;;;;;10418979;28;20224;-70
2020/12/27 01:18:23;;;;;;;4.57;4.00;;;1.80;39.60;;;;;;10406421;28;20232;-70
2020/12/27 01:23:26;;;;;;;5.70;4.43;;;1.80;39.70;;;;;;10425572;28;20228;-70
2020/12/27 01:28:28;;;;;;;4.93;4.30;;;1.70;39.60;;;;;;10406776;28;20226;-69
2020/12/27 01:33:30;;;;;;;4.17;3.73;;;1.70;39.60;;;;;;10416025;28;20307;-69
2020/12/27 01:38:33;;;;;;;4.83;4.33;;;1.60;40.00;;;;;;10407927;28;21064;-70
2020/12/27 01:43:35;;;;;;;6.07;5.50;;;1.50;39.70;;;;;;10408039;28;20232;-70
2020/12/27 01:48:38;;;;;;;4.70;4.20;;;1.40;39.60;;;;;;10418131;28;20237;-69
2020/12/27 01:53:41;;;;;;;4.50;4.10;;;1.30;39.70;;;;;;10410429;28;20229;-69
2020/12/27 01:58:46;;;;;;;4.10;3.80;;;1.20;39.60;;;;;;10421183;28;20241;-70
2020/12/27 02:03:50;;;;;;;3.60;3.30;;;1.20;40.00;;;;;;10409348;28;20232;-70
2020/12/27 02:08:53;;;;;;;4.40;4.00;;;1.30;40.30;;;;;;10411429;28;20240;-70
2020/12/27 02:13:57;;;;;;;4.23;3.83;;;1.30;40.10;;;;;;10411111;28;20236;-70
2020/12/27 02:19:01;;;;;;;3.80;3.40;;;1.40;39.80;;;;;;10416404;28;20235;-69
2020/12/27 02:24:04;;;;;;;4.27;3.73;;;1.30;39.70;;;;;;10427595;28;20590;-70
2020/12/27 02:29:09;;;;;;;4.00;3.60;;;1.30;39.90;;;;;;10414107;28;20228;-70
2020/12/27 02:34:11;;;;;;;5.00;3.77;;;1.30;40.00;;;;;;10421225;28;20229;-70
2020/12/27 02:39:16;;;;;;;3.90;3.57;;;1.30;39.90;;;;;;10413650;28;20689;-70
2020/12/27 02:44:18;;;;;;;4.03;3.40;;;1.30;39.80;;;;;;10418101;28;20221;-70
2020/12/27 02:49:21;;;;;;;3.50;3.20;;;1.40;39.80;;;;;;10421793;28;20238;-74
2020/12/27 02:54:24;;;;;;;3.77;3.27;;;1.40;39.80;;;;;;10421905;28;20577;-74
2020/12/27 02:59:26;;;;;;;3.17;2.73;;;1.40;39.80;;;;;;10411063;28;20232;-74
2020/12/27 03:04:28;;;;;;;3.43;3.13;;;1.40;39.80;;;;;;10415214;28;20226;-74
2020/12/27 03:09:31;;;;;;;3.60;3.30;;;1.40;39.80;;;;;;10410632;28;20241;-74
2020/12/27 03:14:33;;;;;;;4.23;3.00;;;1.40;39.80;;;;;;10424873;28;20328;-74
2020/12/27 03:19:35;;;;;;;3.83;3.50;;;1.40;39.80;;;;;;10411771;28;20736;-74
2020/12/27 03:24:38;;;;;;;3.73;3.33;;;1.40;39.80;;;;;;10435391;28;20605;-74
2020/12/27 03:29:40;;;;;;;4.10;3.23;;;1.30;39.70;;;;;;10416355;28;20232;-74
2020/12/27 03:34:43;;;;;;;3.63;3.33;;;1.30;39.70;;;;;;10416127;28;20234;-74
2020/12/27 03:39:46;;;;;;;3.33;3.03;;;1.20;39.60;;;;;;10420037;28;20744;-74
2020/12/27 03:44:48;;;;;;;3.90;3.23;;;1.20;39.60;;;;;;10413480;28;20229;-74
2020/12/27 03:49:51;;;;;;;3.43;3.13;;;1.10;39.50;;;;;;10414008;28;20617;-74
2020/12/27 03:54:54;;;;;;;3.13;2.83;;;1.10;39.50;;;;;;10421693;28;20722;-74
2020/12/27 03:59:56;;;;;;;3.27;2.97;;;1.00;39.60;;;;;;10408316;28;20667;-74
2020/12/27 04:04:58;;;;;;;4.43;2.87;;;1.00;39.90;;;;;;10415827;28;20238;-74
2020/12/27 04:10:01;;;;;;;3.20;2.90;;;1.00;39.90;;;;;;10408055;28;20690;-74
2020/12/27 04:15:04;;;;;;;3.20;2.90;;;1.00;40.00;;;;;;10421738;28;20706;-74
2020/12/27 04:20:06;;;;;;;3.87;3.13;;;1.00;39.90;;;;;;10409013;28;20218;-74
2020/12/27 04:25:09;;;;;;;3.00;2.77;;;1.00;39.90;;;;;;10411688;28;20241;-74
2020/12/27 04:30:12;;;;;;;3.10;2.80;;;1.10;39.90;;;;;;10409399;28;20226;-74
2020/12/27 04:35:14;;;;;;;3.00;2.70;;;1.10;39.50;;;;;;10409538;28;20225;-74
2020/12/27 04:40:17;;;;;;;2.80;2.60;;;1.00;39.50;;;;;;10410651;28;20232;-74
2020/12/27 04:45:20;;;;;;;2.77;2.50;;;1.00;39.50;;;;;;10417555;28;20225;-74
2020/12/27 04:50:24;;;;;;;2.83;2.63;;;1.00;39.50;;;;;;10410037;28;20225;-74
2020/12/27 04:55:27;;;;;;;3.47;2.80;;;1.00;39.50;;;;;;10411378;28;20225;-74
2020/12/27 05:00:29;;;;;;;2.87;2.53;;;1.00;39.50;;;;;;10407058;28;20241;-74
2020/12/27 05:05:31;;;;;;;2.77;2.47;;;1.00;39.50;;;;;;10409945;28;20300;-74
2020/12/27 05:10:39;;;;;;;4.10;2.80;;;1.00;39.50;;;;;;10410412;28;20611;-74
2020/12/27 05:15:43;;;;;;;2.80;2.60;;;1.00;39.50;;;;;;10414151;28;20233;-74
2020/12/27 05:20:45;;;;;;;3.63;2.90;;;1.00;39.50;;;;;;10414609;28;20313;-74
2020/12/27 05:25:48;;;;;;;3.23;2.60;;;1.00;39.50;;;;;;10415816;28;20326;-74
2020/12/27 05:30:51;;;;;;;2.57;2.33;;;1.00;39.50;;;;;;10408255;28;20225;-74
2020/12/27 05:36:01;;;;;;;3.03;2.70;;;1.00;39.50;;;;;;10411531;28;20239;-74
2020/12/27 05:41:05;;;;;;;5.30;4.73;;;0.90;39.40;;;;;;10408725;28;20236;-74
2020/12/27 05:46:07;;;;;;;3.13;2.83;;;0.90;39.40;;;;;;10415371;28;20809;-74
2020/12/27 05:51:14;;;;;;;4.07;2.30;;;0.90;39.40;;;;;;10416685;28;20226;-74
2020/12/27 05:56:19;;;;;;;4.13;3.67;;;0.90;39.70;;;;;;10423475;28;20233;-74
2020/12/27 06:01:22;;;;;;;3.83;3.47;;;0.90;39.50;;;;;;10425111;28;20323;-74
2020/12/27 06:07:05;;;;;;;3.90;3.30;;;0.90;39.60;;;;;;10422803;28;20231;-74
2020/12/27 06:12:13;;;;;;;3.27;2.97;;;0.80;39.50;;;;;;10419023;28;20226;-73
2020/12/27 06:17:16;;;;;;;2.97;2.67;;;0.80;39.30;;;;;;10429530;28;20229;-74
2020/12/27 06:22:29;;;;;;;2.47;2.27;;;0.80;39.50;;;;;;10426067;28;20231;-74
2020/12/27 06:27:32;;;;;;;2.33;2.10;;;0.70;39.30;;;;;;10415323;28;20232;-74
2020/12/27 06:32:40;;;;;;;2.50;2.23;;;0.60;39.40;;;;;;10420480;28;20225;-74
2020/12/27 06:37:44;;;;;;;2.60;2.40;;;0.60;39.70;;;;;;10420292;28;20237;-74
2020/12/27 06:42:48;;;;;;;4.47;2.30;;;0.50;39.50;;;;;;10416363;28;20232;-74
2020/12/27 06:47:52;;;;;;;1.87;1.77;;;0.50;39.60;;;;;;10425777;28;20240;-74
2020/12/27 06:52:54;;;;;;;3.63;2.60;;;0.50;39.60;;;;;;10422267;28;20308;-74
2020/12/27 06:58:14;;;;;;;6.17;5.37;;;0.50;39.70;;;;;;10419854;28;20237;-74
2020/12/27 07:03:18;;;;;;;3.67;3.37;;;0.40;39.60;;;;;;10413008;28;20214;-74
2020/12/27 07:08:42;;;;;;;3.20;2.90;;;0.40;39.70;;;;;;10411350;28;20234;-74
2020/12/27 07:13:46;;;;;;;3.17;2.60;;;0.40;39.70;;;;;;10421481;28;21037;-74
2020/12/27 07:18:50;;;;;;;2.53;2.20;;;0.30;39.70;;;;;;10416911;28;20264;-74
2020/12/27 07:24:21;;;;;;;2.47;1.93;;;0.30;40.60;;;;;;10427495;28;20244;-74
2020/12/27 07:29:25;;;;;;;2.20;1.90;;;0.30;39.90;;;;;;10409502;28;20235;-74
2020/12/27 07:34:28;;;;;;;2.23;2.03;;;0.30;40.00;;;;;;10418709;28;20226;-74
2020/12/27 07:39:51;;;;;;;2.40;2.13;;;0.30;40.10;;;;;;10416011;28;20309;-74
2020/12/27 07:44:55;;;;;;;2.00;1.80;;;0.30;40.30;;;;;;10420540;28;20230;-74
2020/12/27 07:50:06;;;;;;;2.57;2.13;;;0.30;40.40;;;;;;10419021;28;20229;-74
2020/12/27 07:55:08;;;;;;;2.40;2.20;;;0.40;40.60;;;;;;10414347;28;20232;-74
2020/12/27 08:00:11;;;;;;;1.93;1.83;;;0.50;40.70;;;;;;10429631;28;20243;-74
2020/12/27 08:05:13;;;;;;;3.93;3.37;;;0.60;40.80;;;;;;10416625;28;20257;-74
2020/12/27 08:10:21;;;;;;;4.07;3.50;;;0.70;40.90;;;;;;10407666;28;20236;-74
2020/12/27 08:15:25;;;;;;;2.40;2.20;;;0.90;40.90;;;;;;10416404;28;20229;-74
2020/12/27 08:20:29;;;;;;;2.57;2.30;;;1.00;40.80;;;;;;10416140;28;20225;-74
2020/12/27 08:25:33;;;;;;;2.27;2.00;;;1.10;40.70;;;;;;10421843;28;20264;-74
2020/12/27 08:30:37;;;;;;;2.87;2.17;;;1.30;40.80;;;;;;10417231;28;20243;-74
2020/12/27 08:35:42;;;;;;;2.30;1.87;;;1.40;40.90;;;;;;10419987;28;20245;-74
2020/12/27 08:40:47;;;;;;;1.87;1.77;;;1.60;40.80;;;;;;10412641;28;20224;-74
2020/12/27 08:45:59;;;;;;;1.70;1.57;;;1.60;40.50;;;;;;10415972;28;20721;-74
2020/12/27 08:51:03;;;;;;;2.47;2.27;;;1.80;40.40;;;;;;10411807;28;20225;-74
2020/12/27 08:56:06;;;;;;;9.93;5.90;;;1.90;40.30;;;;;;10412050;28;20630;-74
2020/12/27 09:01:22;;;;;;;3.97;3.30;;;2.00;40.30;;;;;;10406811;28;20226;-73
2020/12/27 09:06:24;;;;;;;3.20;2.90;;;2.10;40.40;;;;;;10412458;28;20672;-73
2020/12/27 09:11:27;;;;;;;3.77;2.90;;;2.20;40.40;;;;;;10414541;28;20239;-73
2020/12/27 09:16:34;;;;;;;3.93;2.90;;;2.30;40.50;;;;;;10414488;28;20600;-73
2020/12/27 09:21:42;;;;;;;3.10;2.70;;;2.30;40.20;;;;;;10407285;28;20720;-74
2020/12/27 09:26:45;;;;;;;5.43;4.93;;;2.30;40.00;;;;;;10423215;28;20226;-74
2020/12/27 09:31:48;;;;;;;3.83;3.43;;;2.30;40.30;;;;;;10414526;28;20240;-74
2020/12/27 09:36:50;;;;;;;2.73;2.53;;;2.30;40.10;;;;;;10420664;28;20304;-74
2020/12/27 09:41:52;;;;;;;3.17;2.87;;;2.30;40.30;;;;;;10426949;28;20239;-73
2020/12/27 09:46:57;;;;;;;2.90;2.70;;;2.40;40.60;;;;;;10429504;28;20217;-73
2020/12/27 09:52:04;;;;;;;2.27;2.10;;;2.40;40.60;;;;;;10417016;28;20229;-73
2020/12/27 09:57:12;;;;;;;2.27;2.07;;;2.40;40.40;;;;;;10426449;28;20210;-73
2020/12/27 10:02:16;;;;;;;3.00;2.80;;;2.50;40.00;;;;;;10413428;28;20235;-73
2020/12/27 10:07:18;;;;;;;2.40;2.20;;;2.60;40.40;;;;;;10417473;28;20218;-73
2020/12/27 10:12:21;;;;;;;2.10;2.00;;;2.50;40.10;;;;;;10420517;28;20267;-73
2020/12/27 10:17:24;;;;;;;2.07;1.87;;;2.60;40.20;;;;;;10420870;28;20233;-73
2020/12/27 10:22:26;;;;;;;2.00;1.90;;;2.60;40.20;;;;;;10415798;28;20312;-73
2020/12/27 10:27:32;;;;;;;2.57;2.30;;;2.70;40.30;;;;;;10415080;28;20312;-74
2020/12/27 10:32:35;;;;;;;3.53;2.30;;;2.80;40.10;;;;;;10416744;28;20225;-74
2020/12/27 10:37:37;;;;;;;2.17;2.00;;;2.90;39.90;;;;;;10413928;28;20602;-74
2020/12/27 10:42:39;;;;;;;2.30;2.10;;;3.00;40.00;;;;;;10416066;28;20309;-74
2020/12/27 10:47:43;;;;;;;2.33;2.13;;;3.10;40.10;;;;;;10424992;28;20239;-74
2020/12/27 10:52:45;;;;;;;2.20;2.03;;;3.20;40.00;;;;;;10412926;28;20610;-74
2020/12/27 10:57:47;;;;;;;2.60;2.30;;;3.30;40.00;;;;;;10417665;28;20225;-74
2020/12/27 11:02:50;;;;;;;3.20;2.90;;;3.50;39.90;;;;;;10417899;28;20232;-74
2020/12/27 11:07:52;;;;;;;4.03;2.17;;;3.60;39.80;;;;;;10415934;28;20239;-74
2020/12/27 11:12:55;;;;;;;2.40;2.20;;;3.70;39.70;;;;;;10421259;28;20222;-76
2020/12/27 11:17:59;;;;;;;2.53;2.33;;;3.70;39.70;;;;;;10410610;28;20233;-75
2020/12/27 11:23:02;;;;;;;2.57;2.37;;;3.70;39.10;;;;;;10418242;28;20224;-74
2020/12/27 11:28:04;;;;;;;2.43;2.23;;;3.70;39.50;;;;;;10424403;28;20247;-74
2020/12/27 11:33:07;;;;;;;2.50;2.30;;;3.70;39.40;;;;;;10416499;28;20233;-75
2020/12/27 11:38:22;;;;;;;2.40;2.20;;;3.80;39.20;;;;;;10419161;28;20654;-75
2020/12/27 11:43:24;;;;;;;3.07;2.50;;;3.80;39.50;;;;;;10409837;28;20218;-74
2020/12/27 11:48:27;;;;;;;2.80;2.60;;;3.80;39.90;;;;;;10422338;28;20229;-74
2020/12/27 11:53:29;;;;;;;3.00;2.73;;;3.80;39.40;;;;;;10412188;28;20308;-74
2020/12/27 11:58:32;;;;;;;3.30;3.07;;;3.80;39.50;;;;;;10416145;28;20238;-75
2020/12/27 12:03:35;;;;;;;3.60;3.30;;;3.90;39.40;;;;;;10408890;28;20237;-75
2020/12/27 12:08:37;;;;;;;7.47;6.07;;;3.90;39.20;;;;;;10419502;28;20240;-75
2020/12/27 12:13:39;;;;;;;3.40;3.10;;;4.00;39.40;;;;;;10414154;28;20221;-75
2020/12/27 12:18:42;;;;;;;3.60;3.30;;;4.10;39.40;;;;;;10408400;28;20231;-75
2020/12/27 12:23:45;;;;;;;2.20;2.00;;;4.10;39.10;;;;;;10414052;28;20232;-75
2020/12/27 12:28:47;;;;;;;2.60;2.40;;;4.20;39.20;;;;;;10409849;28;20232;-75
2020/12/27 12:33:52;;;;;;;2.50;2.30;;;4.20;39.10;;;;;;10409263;28;20229;-75
2020/12/27 12:38:54;;;;;;;2.27;2.13;;;4.30;39.00;;;;;;10420554;28;20228;-75
2020/12/27 12:43:57;;;;;;;3.77;2.50;;;4.30;39.10;;;;;;10415916;28;20727;-75
2020/12/27 12:49:00;;;;;;;4.70;3.47;;;4.40;39.10;;;;;;10420913;28;20229;-75
2020/12/27 12:54:02;;;;;;;2.70;2.50;;;4.40;38.90;;;;;;10409863;28;20309;-74
2020/12/27 12:59:04;;;;;;;3.27;2.97;;;4.40;38.80;;;;;;10417781;28;20235;-74
2020/12/27 13:04:07;;;;;;;6.73;5.60;;;4.30;38.60;;;;;;10406825;28;20237;-74
2020/12/27 13:09:09;;;;;;;9.27;5.73;;;4.30;38.70;;;;;;10408501;28;20320;-74
2020/12/27 13:14:11;;;;;;;5.70;4.73;;;4.30;38.90;;;;;;10425719;28;20240;-74
2020/12/27 13:19:15;;;;;;;8.13;5.00;;;4.20;38.70;;;;;;10409220;28;20237;-75
2020/12/27 13:24:17;;;;;;;10.70;8.33;;;4.20;38.80;;;;;;10417153;28;20232;-75
2020/12/27 13:29:19;;;;;;;10.83;5.20;;;4.10;39.00;;;;;;10406588;28;20609;-74
2020/12/27 13:34:22;;;;;;;17.03;9.23;;;4.20;39.10;;;;;;10408551;28;20247;-74
2020/12/27 13:39:24;;;;;;;6.93;4.43;;;4.10;38.70;;;;;;10412287;28;20236;-74
2020/12/27 13:44:27;;;;;;;4.80;3.63;;;4.10;38.90;;;;;;10411900;28;20233;-75
2020/12/27 13:49:30;;;;;;;3.60;2.93;;;4.10;39.10;;;;;;10415568;28;20237;-75
2020/12/27 13:54:32;;;;;;;3.20;2.90;;;4.10;38.90;;;;;;10416077;28;20650;-75
2020/12/27 13:59:34;;;;;;;3.10;2.90;;;4.20;38.90;;;;;;10415135;28;20229;-75
2020/12/27 14:04:37;;;;;;;3.10;2.80;;;4.30;38.90;;;;;;10405371;28;20337;-74
2020/12/27 14:09:39;;;;;;;2.93;2.60;;;4.20;38.60;;;;;;10420173;28;20234;-74
2020/12/27 14:14:42;;;;;;;3.17;2.87;;;4.10;38.80;;;;;;10415129;28;20243;-74
2020/12/27 14:19:45;;;;;;;3.87;3.50;;;4.10;38.70;;;;;;10413213;28;20283;-74
2020/12/27 14:24:47;;;;;;;3.70;3.30;;;4.10;38.60;;;;;;10417434;28;20236;-74
2020/12/27 14:29:50;;;;;;;4.97;3.77;;;4.10;38.90;;;;;;10415306;28;20726;-74
2020/12/27 14:34:53;;;;;;;18.30;9.00;;;4.10;38.80;;;;;;10413148;28;20244;-74
2020/12/27 14:39:56;;;;;;;6.07;4.50;;;4.10;38.60;;;;;;10416960;28;20225;-74
2020/12/27 14:44:58;;;;;;;5.93;4.33;;;4.20;38.70;;;;;;10417106;28;20228;-74
2020/12/27 14:50:01;;;;;;;4.60;3.83;;;4.10;38.60;;;;;;10421936;28;20225;-73
2020/12/27 14:55:03;;;;;;;3.33;3.03;;;4.30;38.60;;;;;;10417703;28;20225;-73
2020/12/27 15:00:05;;;;;;;3.63;2.90;;;4.10;38.50;;;;;;10421923;28;20620;-73
2020/12/27 15:05:09;;;;;;;2.73;2.53;;;4.00;38.50;;;;;;10416850;28;20320;-73
2020/12/27 15:10:11;;;;;;;2.70;2.50;;;3.90;38.60;;;;;;10412371;28;20317;-73
2020/12/27 15:15:14;;;;;;;3.07;2.83;;;3.90;38.70;;;;;;10418538;28;20238;-73
2020/12/27 15:20:17;;;;;;;3.60;3.30;;;3.90;38.70;;;;;;10420931;28;20229;-73
2020/12/27 15:25:20;;;;;;;5.33;4.83;;;3.90;38.70;;;;;;10422167;28;20221;-73
2020/12/27 15:30:22;;;;;;;4.20;3.80;;;4.00;38.70;;;;;;10413293;28;20221;-73
2020/12/27 15:35:25;;;;;;;4.70;3.80;;;4.00;38.80;;;;;;10409870;28;20244;-74
2020/12/27 15:40:27;;;;;;;3.80;3.40;;;3.80;38.70;;;;;;10419138;28;20247;-74
2020/12/27 15:45:29;;;;;;;5.40;4.90;;;3.90;38.90;;;;;;10422491;28;20236;-75
2020/12/27 15:50:32;;;;;;;6.47;5.33;;;3.80;38.80;;;;;;10423479;28;20231;-74
2020/12/27 15:55:35;;;;;;;5.80;5.30;;;3.80;38.70;;;;;;10428516;28;20236;-74
2020/12/27 16:00:37;;;;;;;8.10;7.37;;;3.70;38.80;;;;;;10421094;28;20225;-74
2020/12/27 16:05:41;;;;;;;5.13;4.63;;;3.70;38.90;;;;;;10411971;28;20241;-74
2020/12/27 16:10:44;;;;;;;4.97;4.20;;;3.60;38.90;;;;;;10413313;28;20280;-74
2020/12/27 16:15:47;;;;;;;6.20;5.40;;;3.60;38.90;;;;;;10423494;28;20233;-74
2020/12/27 16:20:50;;;;;;;4.87;4.40;;;3.60;38.90;;;;;;10414915;28;20222;-74
2020/12/27 16:25:52;;;;;;;5.23;4.73;;;3.60;38.80;;;;;;10410865;28;20732;-74
2020/12/27 16:30:54;;;;;;;4.67;4.17;;;3.60;38.80;;;;;;10420492;28;20226;-74
2020/12/27 16:35:57;;;;;;;4.70;4.30;;;3.50;38.80;;;;;;10416005;28;20321;-74
2020/12/27 16:41:00;;;;;;;4.43;4.03;;;3.60;39.10;;;;;;10411096;28;20221;-74
2020/12/27 16:46:03;;;;;;;5.53;4.80;;;3.40;39.10;;;;;;10415164;28;20237;-74
2020/12/27 16:51:07;;;;;;;6.20;5.60;;;3.30;38.90;;;;;;10414054;28;20641;-73
2020/12/27 16:56:10;;;;;;;4.33;3.80;;;3.30;38.90;;;;;;10413436;28;20260;-74
2020/12/27 17:01:14;;;;;;;4.47;4.07;;;3.20;38.90;;;;;;10413239;28;20236;-73
2020/12/27 17:06:17;;;;;;;4.23;3.83;;;3.10;39.10;;;;;;10421161;28;20237;-74
2020/12/27 17:11:20;;;;;;;6.00;5.50;;;3.00;38.90;;;;;;10415966;28;20232;-74
2020/12/27 17:16:25;;;;;;;5.60;5.10;;;3.00;38.90;;;;;;10412841;28;20614;-74
2020/12/27 17:21:28;;;;;;;6.77;6.17;;;3.10;38.70;;;;;;10421091;28;20309;-74
2020/12/27 17:26:30;;;;;;;6.60;5.53;;;3.10;38.70;;;;;;10423701;28;20233;-74
2020/12/27 17:31:33;;;;;;;5.30;4.80;;;3.00;38.70;;;;;;10413357;28;20233;-74
2020/12/27 17:36:36;;;;;;;4.83;4.33;;;2.90;38.80;;;;;;10417105;28;20234;-74
2020/12/27 17:41:38;;;;;;;5.13;4.63;;;3.10;39.10;;;;;;10407569;28;20221;-74
2020/12/27 17:46:40;;;;;;;4.93;4.50;;;3.00;39.10;;;;;;10422477;28;20714;-74
2020/12/27 17:51:43;;;;;;;6.10;5.60;;;3.00;39.00;;;;;;10427480;28;20577;-74
2020/12/27 17:56:46;;;;;;;5.63;5.07;;;3.00;38.90;;;;;;10420771;28;20232;-74
2020/12/27 18:01:48;;;;;;;5.60;5.17;;;3.10;38.90;;;;;;10413319;28;20221;-74
2020/12/27 18:06:52;;;;;;;8.13;5.77;;;3.20;39.10;;;;;;10421667;28;20229;-74
2020/12/27 18:11:54;;;;;;;6.37;5.73;;;3.10;38.90;;;;;;10415069;28;20232;-74
2020/12/27 18:16:57;;;;;;;5.57;5.03;;;3.20;38.90;;;;;;10431878;28;20228;-74
2020/12/27 18:22:00;;;;;;;5.60;5.00;;;3.30;39.00;;;;;;10427258;28;20224;-74
2020/12/27 18:27:02;;;;;;;5.80;5.20;;;3.30;39.00;;;;;;10422846;28;20224;-73
2020/12/27 18:32:04;;;;;;;10.03;9.03;;;3.40;38.90;;;;;;10421105;28;20705;-73
2020/12/27 18:37:07;;;;;;;8.97;8.17;;;3.40;38.60;;;;;;10417388;28;20710;-74
2020/12/27 18:42:10;;;;;;;8.33;7.50;;;3.40;38.60;;;;;;10417217;28;20721;-74
2020/12/27 18:47:12;;;;;;;7.90;6.83;;;3.30;38.60;;;;;;10425655;28;20233;-74
2020/12/27 18:52:15;;;;;;;6.67;5.77;;;3.30;38.80;;;;;;10413660;28;20253;-74
2020/12/27 18:57:18;;;;;;;6.47;5.70;;;3.30;38.90;;;;;;10424714;28;20245;-74
2020/12/27 19:02:20;;;;;;;6.13;5.53;;;3.40;38.90;;;;;;10419197;28;20232;-74
2020/12/27 19:07:23;;;;;;;7.13;6.43;;;3.40;38.80;;;;;;10417816;28;20226;-74
2020/12/27 19:12:25;;;;;;;15.67;10.27;;;3.40;38.70;;;;;;10418675;28;20235;-74
2020/12/27 19:17:27;;;;;;;9.50;8.50;;;3.40;38.80;;;;;;10418051;28;20231;-74
2020/12/27 19:22:30;;;;;;;14.27;12.17;;;3.40;38.70;;;;;;10421143;28;20880;-74
2020/12/27 19:27:32;;;;;;;7.03;6.33;;;3.40;38.40;;;;;;10418097;28;20236;-74
2020/12/27 19:32:34;;;;;;;5.93;5.33;;;3.30;38.40;;;;;;10420414;28;20303;-74
2020/12/27 19:37:37;;;;;;;9.13;7.47;;;3.30;38.60;;;;;;10414052;28;20266;-74
2020/12/27 19:42:41;;;;;;;5.10;4.60;;;3.30;38.50;;;;;;10420164;28;20229;-74
2020/12/27 19:47:43;;;;;;;4.83;4.30;;;3.30;38.50;;;;;;10423449;28;20262;-74
2020/12/27 19:52:47;;;;;;;4.63;3.73;;;3.20;38.60;;;;;;10410837;28;20324;-74
2020/12/27 19:57:49;;;;;;;4.33;3.93;;;3.20;38.50;;;;;;10417451;28;20230;-74
2020/12/27 20:02:52;;;;;;;4.90;4.30;;;3.10;38.70;;;;;;10418950;28;20221;-74
2020/12/27 20:07:55;;;;;;;5.37;4.60;;;3.00;38.60;;;;;;10416720;28;20697;-74
2020/12/27 20:13:05;;;;;;;4.90;4.43;;;3.00;38.80;;;;;;10421663;28;20752;-74
2020/12/27 20:18:08;;;;;;;5.30;4.80;;;3.00;38.90;;;;;;10410184;28;20580;-74
2020/12/27 20:23:11;;;;;;;5.30;4.80;;;3.00;39.00;;;;;;10414564;28;20243;-74
2020/12/27 20:28:13;;;;;;;4.80;4.40;;;3.00;38.90;;;;;;10412113;28;20229;-74
2020/12/27 20:33:16;;;;;;;6.20;5.60;;;3.00;38.90;;;;;;10417489;28;20234;-74
2020/12/27 20:38:20;;;;;;;5.20;4.70;;;3.10;39.10;;;;;;10407769;28;20308;-74
2020/12/27 20:43:22;;;;;;;4.93;4.27;;;3.00;39.10;;;;;;10413279;28;20714;-74
2020/12/27 20:48:24;;;;;;;4.30;3.90;;;3.00;39.20;;;;;;10420512;28;20225;-74
2020/12/27 20:53:27;;;;;;;5.23;4.73;;;3.10;39.40;;;;;;10410809;28;20229;-75
2020/12/27 20:58:29;;;;;;;4.50;4.10;;;3.00;39.20;;;;;;10418737;28;20312;-75
2020/12/27 21:03:32;;;;;;;4.33;3.93;;;3.20;39.40;;;;;;10407029;28;20308;-75
2020/12/27 21:08:35;;;;;;;6.50;5.43;;;3.10;39.20;;;;;;10410065;28;20321;-75
2020/12/27 21:13:38;;;;;;;5.30;4.70;;;3.20;39.50;;;;;;10417983;28;20233;-75
2020/12/27 21:18:40;;;;;;;4.90;4.40;;;3.20;39.50;;;;;;10408874;28;20320;-75
2020/12/27 21:23:45;;;;;;;4.57;4.17;;;3.20;39.40;;;;;;10415719;28;20313;-75
2020/12/27 21:28:47;;;;;;;5.37;4.70;;;3.30;39.50;;;;;;10411820;28;20762;-75
2020/12/27 21:33:49;;;;;;;4.73;4.30;;;3.40;39.50;;;;;;10410623;28;20228;-75
2020/12/27 21:38:52;;;;;;;4.10;3.70;;;3.40;39.40;;;;;;10405888;28;20235;-75
2020/12/27 21:43:54;;;;;;;4.93;4.47;;;3.40;39.40;;;;;;10417838;28;20231;-75
2020/12/27 21:48:56;;;;;;;5.07;4.03;;;3.40;39.20;;;;;;10414954;28;20303;-75
2020/12/27 21:53:59;;;;;;;3.70;3.40;;;3.40;39.30;;;;;;10415708;28;20315;-75
2020/12/27 21:59:02;;;;;;;5.00;4.60;;;3.40;39.40;;;;;;10405426;28;20245;-74
2020/12/27 22:04:04;;;;;;;4.20;3.80;;;3.40;39.40;;;;;;10418903;28;20237;-74
2020/12/27 22:09:07;;;;;;;4.57;4.13;;;3.50;39.60;;;;;;10408288;28;20618;-74
2020/12/27 22:14:09;;;;;;;3.77;3.47;;;3.50;39.60;;;;;;10417222;28;20607;-74
2020/12/27 22:19:11;;;;;;;3.97;3.60;;;3.50;39.60;;;;;;10408291;28;20577;-74
2020/12/27 22:24:16;;;;;;;3.77;3.47;;;3.60;39.60;;;;;;10422834;28;20235;-74
2020/12/27 22:29:18;;;;;;;4.07;3.77;;;3.60;39.50;;;;;;10408908;28;20229;-75
2020/12/27 22:34:21;;;;;;;4.03;3.63;;;3.70;39.60;;;;;;10413422;28;20233;-75
2020/12/27 22:39:24;;;;;;;5.03;3.90;;;3.60;39.30;;;;;;10423374;28;20232;-75
2020/12/27 22:44:27;;;;;;;4.27;3.77;;;3.60;39.30;;;;;;10417216;28;20233;-74
2020/12/27 22:49:31;;;;;;;4.20;3.77;;;3.50;39.20;;;;;;10420302;28;20230;-75
2020/12/27 22:54:34;;;;;;;4.47;4.07;;;3.50;39.40;;;;;;10416756;28;20591;-75
2020/12/27 22:59:36;;;;;;;3.70;3.40;;;3.50;39.50;;;;;;10423719;28;20235;-75
2020/12/27 23:04:39;;;;;;;3.90;3.60;;;3.50;39.60;;;;;;10413796;28;20599;-75
2020/12/27 23:09:42;;;;;;;4.27;3.97;;;3.50;39.70;;;;;;10415160;28;20229;-75
2020/12/27 23:14:46;;;;;;;4.63;4.23;;;3.70;39.60;;;;;;10417883;28;20736;-75
2020/12/27 23:19:48;;;;;;;4.60;4.17;;;3.60;39.40;;;;;;10411563;28;20279;-75
2020/12/27 23:24:52;;;;;;;5.53;5.00;;;3.60;39.60;;;;;;10414225;28;20598;-75
2020/12/27 23:29:54;;;;;;;4.53;4.10;;;3.50;39.50;;;;;;10418924;28;20757;-75
2020/12/27 23:34:56;;;;;;;7.00;4.67;;;3.40;39.40;;;;;;10410047;28;21921;-75
2020/12/27 23:39:59;;;;;;;4.57;4.17;;;3.40;39.50;;;;;;10412510;28;20714;-75
2020/12/27 23:45:01;;;;;;;4.57;4.17;;;3.30;39.60;;;;;;10413550;28;20593;-72
2020/12/27 23:50:04;;;;;;;4.40;4.00;;;3.30;39.80;;;;;;10418690;28;20222;-74
2020/12/27 23:55:07;;;;;;;4.70;4.30;;;3.20;39.80;;;;;;10416035;28;20222;-74
